createdAt,value
2022-11-07T00:00:47.497Z,6.65
2022-11-07T00:07:51.395Z,7.65
2022-11-07T00:14:52.989Z,7.82
2022-11-07T00:21:54.521Z,6.13
2022-11-07T00:28:56.321Z,6.75
2022-11-07T00:35:57.941Z,6.90
2022-11-07T00:42:59.502Z,6.03
2022-11-07T00:50:01.077Z,8.25
2022-11-07T00:57:02.694Z,7.38
2022-11-07T01:04:22.833Z,7.00
2022-11-07T01:11:25.042Z,5.65
2022-11-07T01:18:26.658Z,6.57
2022-11-07T01:25:28.211Z,6.38
2022-11-07T01:32:29.792Z,7.40
2022-11-07T01:39:31.401Z,6.30
2022-11-07T01:46:39.006Z,7.35
2022-11-07T01:53:40.770Z,6.53
2022-11-07T02:00:42.317Z,6.85
2022-11-07T02:07:43.945Z,7.90
2022-11-07T02:14:45.610Z,7.20
2022-11-07T02:21:50.743Z,6.38
2022-11-07T02:28:52.612Z,6.88
2022-11-07T02:35:54.178Z,6.18
2022-11-07T02:42:55.890Z,5.80
2022-11-07T02:49:57.462Z,5.78
2022-11-07T02:56:59.034Z,6.07
2022-11-07T03:04:00.572Z,6.00
2022-11-07T03:11:02.462Z,6.25
2022-11-07T03:18:04.135Z,5.68
2022-11-07T03:25:06.631Z,6.00
2022-11-07T03:32:08.283Z,5.38
2022-11-07T03:39:09.835Z,5.90
2022-11-07T03:46:15.106Z,4.82
2022-11-07T03:53:22.179Z,4.85
2022-11-07T04:00:25.515Z,5.57
2022-11-07T04:07:27.107Z,5.05
2022-11-07T04:14:46.971Z,5.18
2022-11-07T04:21:48.574Z,4.27
2022-11-07T04:28:50.122Z,5.03
2022-11-07T04:35:51.726Z,4.45
2022-11-07T04:42:53.683Z,5.05
2022-11-07T04:49:55.264Z,5.00
2022-11-07T04:56:56.882Z,4.70
2022-11-07T05:03:58.566Z,4.57
2022-11-07T05:11:00.127Z,4.78
2022-11-07T05:18:01.743Z,5.38
2022-11-07T05:25:03.309Z,4.95
2022-11-07T05:32:05.138Z,4.40
2022-11-07T05:39:06.718Z,5.10
2022-11-07T05:46:11.010Z,4.38
2022-11-07T05:53:12.916Z,4.82
2022-11-07T06:00:15.091Z,4.47
2022-11-07T06:07:16.613Z,4.45
2022-11-07T06:14:18.238Z,4.43
2022-11-07T06:21:19.790Z,4.43
2022-11-07T06:28:21.368Z,3.97
2022-11-07T06:35:22.902Z,4.40
2022-11-07T06:42:25.921Z,4.10
2022-11-07T06:49:27.532Z,4.30
2022-11-07T06:56:29.090Z,4.38
2022-11-07T07:03:30.720Z,4.20
2022-11-07T07:10:35.839Z,4.32
2022-11-07T07:17:37.475Z,3.72
2022-11-07T07:24:39.175Z,3.55
2022-11-07T07:31:41.838Z,4.28
2022-11-07T07:38:43.545Z,4.18
2022-11-07T07:45:45.113Z,3.70
2022-11-07T07:52:46.733Z,3.67
2022-11-07T07:59:48.348Z,3.78
2022-11-07T08:06:49.914Z,3.20
2022-11-07T08:13:51.486Z,3.42
2022-11-07T08:20:54.134Z,3.42
2022-11-07T08:27:55.694Z,3.35
2022-11-07T08:34:57.268Z,3.45
2022-11-07T08:41:58.850Z,3.00
2022-11-07T08:49:00.414Z,3.25
2022-11-07T08:56:06.369Z,3.17
2022-11-07T09:10:29.996Z,2.60
2022-11-07T09:17:31.591Z,2.55
2022-11-07T09:24:33.183Z,2.90
2022-11-07T09:31:34.740Z,2.70
2022-11-07T09:38:36.310Z,3.25
2022-11-07T09:45:44.474Z,2.65
2022-11-07T09:52:52.761Z,2.60
2022-11-07T10:00:26.515Z,2.70
2022-11-07T10:08:11.528Z,2.70
2022-11-07T10:15:27.110Z,2.17
2022-11-07T10:23:00.674Z,2.67
2022-11-07T10:30:02.267Z,2.42
2022-11-07T10:37:04.217Z,2.15
2022-11-07T10:44:09.764Z,2.53
2022-11-07T10:51:11.385Z,2.42
2022-11-07T10:58:18.935Z,2.50
2022-11-07T11:05:26.767Z,2.72
2022-11-07T11:12:34.566Z,2.08
2022-11-07T11:19:41.117Z,2.35
2022-11-07T11:26:43.909Z,2.30
2022-11-07T11:33:48.465Z,2.05
2022-11-07T11:41:03.260Z,2.47
2022-11-07T11:48:30.978Z,2.20
2022-11-07T11:55:37.821Z,2.63
2022-11-07T12:03:11.763Z,2.25
2022-11-07T12:10:34.251Z,2.20
2022-11-07T12:18:01.783Z,2.15
2022-11-07T12:25:12.482Z,2.00
2022-11-07T12:33:04.632Z,2.20
2022-11-07T12:40:08.899Z,2.17
2022-11-07T12:47:32.340Z,2.22
2022-11-07T12:54:44.526Z,2.03
2022-11-07T13:02:09.831Z,2.25
2022-11-07T13:09:33.154Z,2.30
2022-11-07T13:16:35.610Z,2.28
2022-11-07T13:23:37.236Z,2.20
2022-11-07T13:30:39.971Z,2.60
2022-11-07T13:37:41.613Z,5.88
2022-11-07T13:44:43.202Z,2.17
2022-11-07T13:51:46.876Z,2.58
2022-11-07T13:58:49.603Z,2.70
2022-11-07T14:05:51.252Z,2.40
2022-11-07T14:12:55.472Z,2.67
2022-11-07T14:20:14.176Z,3.05
2022-11-07T14:27:15.790Z,2.70
2022-11-07T14:34:18.585Z,2.58
2022-11-07T14:41:20.359Z,2.88
2022-11-07T14:48:27.425Z,3.40
2022-11-07T14:55:31.689Z,2.40
2022-11-07T15:02:33.423Z,2.85
2022-11-07T15:09:35.622Z,2.80
2022-11-07T15:16:38.955Z,2.47
2022-11-07T15:23:40.564Z,2.75
2022-11-07T15:30:42.921Z,2.92
2022-11-07T15:38:00.620Z,3.42
2022-11-07T15:45:02.240Z,2.85
2022-11-07T15:52:03.867Z,2.75
2022-11-07T15:59:05.895Z,2.53
2022-11-07T16:06:15.055Z,2.63
2022-11-07T16:13:16.714Z,2.58
2022-11-07T16:20:20.034Z,2.83
2022-11-07T16:27:21.649Z,2.50
2022-11-07T16:34:23.258Z,2.40
2022-11-07T16:41:24.899Z,2.50
2022-11-07T16:48:27.717Z,2.83
2022-11-07T16:55:29.355Z,2.50
2022-11-07T17:02:31.093Z,2.72
2022-11-07T17:09:32.785Z,2.83
2022-11-07T17:16:36.542Z,3.40
2022-11-07T17:23:38.146Z,2.85
2022-11-07T17:30:39.707Z,3.03
2022-11-07T17:37:41.255Z,3.17
2022-11-07T17:44:42.873Z,2.90
2022-11-07T17:51:44.739Z,3.20
2022-11-07T17:58:47.042Z,3.83
2022-11-07T18:05:51.658Z,3.03
2022-11-07T18:12:53.224Z,2.88
2022-11-07T18:19:54.802Z,3.10
2022-11-07T18:26:56.400Z,3.33
2022-11-07T18:34:02.239Z,2.55
2022-11-07T18:41:05.802Z,3.20
2022-11-07T18:48:07.403Z,2.88
2022-11-07T18:55:09.601Z,3.38
2022-11-07T19:02:12.142Z,3.40
2022-11-07T19:09:13.741Z,3.50
2022-11-07T19:16:16.552Z,3.65
2022-11-07T19:23:18.400Z,3.25
2022-11-07T19:30:20.201Z,3.15
2022-11-07T19:37:21.757Z,3.47
2022-11-07T19:44:23.363Z,3.85
2022-11-07T19:51:24.929Z,3.35
2022-11-07T19:58:26.498Z,3.65
2022-11-07T20:05:34.063Z,3.10
2022-11-07T20:12:35.685Z,3.22
2022-11-07T20:19:37.975Z,2.97
2022-11-07T20:26:39.818Z,3.45
2022-11-07T20:33:41.467Z,3.40
2022-11-07T20:40:43.040Z,3.20
2022-11-07T20:47:44.807Z,4.05
2022-11-07T20:54:46.417Z,2.95
2022-11-07T21:01:50.835Z,2.90
2022-11-07T21:08:52.450Z,2.70
2022-11-07T21:15:54.038Z,2.90
2022-11-07T21:22:55.622Z,3.13
2022-11-07T21:29:57.246Z,2.80
2022-11-07T21:36:58.851Z,2.95
2022-11-07T21:44:00.418Z,3.10
2022-11-07T21:51:10.108Z,3.08
2022-11-07T21:58:11.679Z,2.93
2022-11-07T22:05:15.284Z,2.88
2022-11-07T22:12:16.846Z,2.83
2022-11-07T22:19:18.556Z,2.80
2022-11-07T22:26:22.147Z,3.08
2022-11-07T22:33:23.751Z,2.88
2022-11-07T22:40:25.318Z,2.80
2022-11-07T22:47:26.967Z,2.38
2022-11-07T22:54:28.576Z,3.10
2022-11-07T23:01:32.181Z,3.00
2022-11-07T23:08:33.857Z,2.80
2022-11-07T23:15:35.467Z,3.10
2022-11-07T23:22:37.036Z,2.85
2022-11-07T23:29:38.588Z,2.72
2022-11-07T23:36:46.392Z,2.83
2022-11-07T23:43:52.204Z,3.00
2022-11-07T23:51:02.848Z,2.70
2022-11-07T23:58:30.578Z,2.72
